Flight Track Log - Related Links

Times and Time Zones

All times are in EDT time to prevent confusion due to time zone crossing. See the EJA729 flight status page for this flight to view local times or setup timezone preferences in your user account.

Time Position Orientation Groundspeed Altitude Reporting Facility
EDT Latitude Longitude Course Direction KTS MPH feet Rate Location/Type
Tue 12:31:55 PM 32.7519 -117.2297 303° West 200 230 2,400  Level Los Center
Tue 12:32:57 PM 32.7906 -117.3017 303° West 234 269 5,500 2,928 Climbing Los Center
Tue 12:34:00 PM 32.8283 -117.3725 302° West 250 288 8,500 2,832 Climbing Los Center
Tue 12:35:02 PM 32.8742 -117.4544 304° West 291 335 11,400 2,855 Climbing Los Center
Tue 12:36:04 PM 32.9686 -117.5381 323° Northwest 365 420 14,400 2,661 Climbing Los Center
Tue 12:37:06 PM 33.0461 -117.6247 317° Northwest 381 438 16,900 2,371 Climbing Los Center
Tue 12:38:08 PM 33.1122 -117.7322 306° West 398 458 19,300 2,177 Climbing Los Center
Tue 12:39:10 PM 33.1825 -117.8383 308° West 405 466 21,400 1,790 Climbing Los Center
Tue 12:40:12 PM 33.2633 -117.9408 313° West 419 482 23,000 1,645 Climbing Los Center
Tue 12:41:14 PM 33.3647 -118.0694 313° West 438 504 24,800 1,597 Climbing Los Center
Tue 12:42:16 PM 33.4519 -118.1797 313° West 451 519 26,300 1,440 Climbing Los Center
Tue 12:43:19 PM 33.5547 -118.2664 325° Northwest 460 529 27,800 1,488 Climbing Los Center
Tue 12:44:21 PM 33.6769 -118.3203 340° North 463 533 29,400 1,548 Climbing Los Center
Tue 12:45:23 PM 33.8158 -118.3808 340° North 474 545 31,000 1,500 Climbing Los Center
Tue 12:46:25 PM 33.9364 -118.4333 340° North 472 543 32,500 1,452 Climbing Los Center
Tue 12:47:27 PM 34.0556 -118.4900 338° Northwest 464 534 34,000 1,452 Climbing Los Center
Tue 12:48:29 PM 34.1736 -118.5503 337° Northwest 463 533 35,500 1,452 Climbing Los Center
Tue 12:49:31 PM 34.2908 -118.6081 338° Northwest 458 527 37,000 1,210 Climbing Los Center
Tue 12:50:33 PM 34.4294 -118.6761 338° Northwest 448 516 38,000 484 Climbing Los Center
Tue 12:51:35 PM 34.5489 -118.7353 338° Northwest 461 531 38,000  Level Los Center
Tue 12:52:37 PM 34.6700 -118.7950 338° Northwest 469 540 38,000  Level Los Center
Tue 12:53:40 PM 34.7914 -118.8578 337° Northwest 473 544 38,000  Level Los Center
Tue 12:54:42 PM 34.9058 -118.9592 324° Northwest 466 536 38,000  Level Los Center
Tue 12:55:44 PM 35.0061 -119.0578 321° Northwest 462 532 38,000  Level Los Center
Tue 12:56:46 PM 35.1075 -119.1550 322° Northwest 463 533 38,000  Level Los Center
Tue 12:57:48 PM 35.2075 -119.2519 322° Northwest 462 532 38,000  Level Los Center
Tue 12:58:50 PM 35.3058 -119.3508 321° Northwest 457 526 38,000  Level Los Center
Tue 12:59:52 PM 35.4261 -119.4686 321° Northwest 459 528 38,000  Level Los Center
Tue 01:00:54 PM 35.5239 -119.5653 321° Northwest 456 525 38,000  Level Los Center
Tue 01:01:56 PM 35.6211 -119.6633 321° Northwest 453 521 38,000  Level Los Center
Tue 01:02:45 PM 35.6967 -119.7367 322° Northwest 452 520 38,000  Level Oakland Center
Tue 01:03:46 PM 35.7953 -119.8364 321° Northwest 459 528 38,000  Level Oakland Center
Tue 01:04:47 PM 35.8919 -119.9319 321° Northwest 454 522 38,000  Level Oakland Center
Tue 01:05:48 PM 36.0078 -120.0497 321° Northwest 452 520 38,000  Level Oakland Center
Tue 01:06:50 PM 36.1053 -120.1517 320° Northwest 459 528 38,000 -49 Level Oakland Center
Tue 01:07:51 PM 36.2011 -120.2461 322° Northwest 449 517 37,900 -885 Descending Oakland Center
Tue 01:08:52 PM 36.2972 -120.3450 320° Northwest 449 517 36,200 -1,317 Descending Oakland Center
Tue 01:09:54 PM 36.3886 -120.4422 319° Northwest 440 506 35,200 -1,512 Descending Oakland Center
Tue 01:10:55 PM 36.4822 -120.5336 322° Northwest 433 498 33,100 -2,508 Descending Oakland Center
Tue 01:11:56 PM 36.5747 -120.6303 320° Northwest 435 501 30,100 -2,927 Descending Oakland Center
Tue 01:12:58 PM 36.6675 -120.7314 319° Northwest 441 507 27,100 -2,488 Descending Oakland Center
Tue 01:13:59 PM 36.8008 -120.8111 334° Northwest 452 520 25,000 -2,115 Descending Oakland Center
Tue 01:15:00 PM 36.9133 -120.8436 347° North 450 518 22,800 -2,880 Descending Oakland Center
Tue 01:16:04 PM 37.0500 -120.8833 347° North 432 497 19,000 -3,073 Descending Northern TRACON
Tue 01:17:03 PM 37.1422 -120.9247 340° North 420 483 16,500 -3,150 Descending Oakland Center
Tue 01:18:04 PM 37.2469 -120.9608 345° North 395 455 12,700 -2,852 Descending Oakland Center
Tue 01:19:05 PM 37.3397 -120.9950 344° North 353 406 10,700 -1,850 Descending Oakland Center
Tue 01:20:04 PM 37.4167 -121.0500 330° Northwest 291 335 9,000 -903 Descending Northern TRACON
Tue 01:20:58 PM 37.4667 -121.1167 313° West 293 337 9,000  Level Northern TRACON
Tue 01:21:58 PM 37.5167 -121.2000 307° West 292 336 9,000  Level Northern TRACON
Tue 01:22:58 PM 37.5667 -121.2833 307° West 295 339 9,000 -250 Level Northern TRACON
Tue 01:23:58 PM 37.6167 -121.3500 313° West 289 333 8,500 -500 Descending Northern TRACON
Tue 01:24:58 PM 37.6667 -121.4333 307° West 287 330 8,000 -250 Descending Northern TRACON
Tue 01:25:58 PM 37.7167 -121.5167 307° West 293 337 8,000  Level Northern TRACON
Tue 01:26:58 PM 37.7667 -121.6000 307° West 282 325 8,000  Level Northern TRACON
Tue 01:27:52 PM 37.8000 -121.6833 297° West 287 330 8,000 -474 Level Northern TRACON
Tue 01:28:52 PM 37.8333 -121.7667 297° West 276 318 7,100 -1,000 Descending Northern TRACON
Tue 01:29:52 PM 37.8667 -121.8500 297° West 257 296 6,000 -650 Descending Northern TRACON
Tue 01:30:52 PM 37.9000 -121.9167 302° West 265 305 5,800 -500 Descending Northern TRACON
Tue 01:31:52 PM 37.9167 -122.0000 284° West 225 259 5,000 -593 Descending Northern TRACON
Tue 01:32:23 PM 37.9147 -122.0378 266° West 228 262 4,900 -848 Descending Oakland Center
Tue 01:33:24 PM 37.9244 -122.1083 280° West 211 243 3,700 -885 Descending Oakland Center
Tue 01:34:25 PM 37.9394 -122.1786 285° West 205 236 3,100 -341 Descending Oakland Center
Tue 01:35:27 PM 37.9328 -122.2428 263° West 194 223 3,000 -49 Descending Oakland Center
Tue 01:36:28 PM 37.9153 -122.3067 251° West 192 221 3,000  Level Oakland Center
Tue 01:37:29 PM 37.8936 -122.3725 247° West 197 227 3,000 -390 Level Oakland Center
Tue 01:38:31 PM 37.8444 -122.4017 205° Southwest 191 220 2,200 -585 Descending Oakland Center
Tue 01:39:32 PM 37.8036 -122.3675 147° Southeast 186 214 1,800 -356 Descending Oakland Center
Tue 01:40:46 PM 37.7667 -122.3167 133° Southeast 133 153 1,400 -563 Descending Northern TRACON
Tue 01:41:40 PM 37.7500 -122.2833 122° Southeast 135 155 600 -632 Descending Northern TRACON
Tue 01:42:40 PM 37.7167 -122.2500 142° Southeast 137 158 200 -400 Descending Northern TRACON

Login

Don't have an account? Register now (free) for customized features, flight alerts, and more!